Time;durP1;ratioP1;P1;durP2;ratioP2;P2;SDS_P1;SDS_P2;PMS_P1;PMS_P2;Temp;Humidity;BMP_temperature;BMP_pressure;BME280_temperature;BME280_humidity;BME280_pressure;Samples;Min_cycle;Max_cycle;Signal;HPM_P1;HPM_P2
2023/09/21 00:00:48;;;;;;;6.03;2.90;;;18.50;99.90;;;;;;5070417;28;20055;-76
2023/09/21 00:03:14;;;;;;;5.97;3.20;;;18.50;99.90;;;;;;5067469;28;20054;-76
2023/09/21 00:05:56;;;;;;;4.50;2.72;;;18.50;99.90;;;;;;5081179;27;20941;-75
2023/09/21 00:08:23;;;;;;;5.05;2.65;;;18.50;99.90;;;;;;5076234;28;20056;-75
2023/09/21 00:10:53;;;;;;;5.38;2.72;;;18.50;99.90;;;;;;5077690;28;20059;-75
2023/09/21 00:13:20;;;;;;;7.85;3.35;;;18.50;99.90;;;;;;5089057;28;20044;-75
2023/09/21 00:15:47;;;;;;;5.13;2.70;;;18.50;99.90;;;;;;5072364;28;20099;-75
2023/09/21 00:18:14;;;;;;;6.68;2.90;;;18.50;99.90;;;;;;5076343;28;20487;-76
2023/09/21 00:20:43;;;;;;;4.78;2.85;;;18.40;99.90;;;;;;5069320;28;20071;-75
2023/09/21 00:23:09;;;;;;;5.53;2.42;;;18.40;99.90;;;;;;5075851;28;20071;-75
2023/09/21 00:25:38;;;;;;;5.53;3.00;;;18.40;99.90;;;;;;5064876;28;21954;-75
2023/09/21 00:28:07;;;;;;;5.60;2.90;;;18.40;99.90;;;;;;5072684;28;20040;-75
2023/09/21 00:30:37;;;;;;;5.57;2.92;;;18.40;99.90;;;;;;5077285;28;20522;-75
2023/09/21 00:33:07;;;;;;;4.85;2.85;;;18.40;99.90;;;;;;5074442;28;20119;-74
2023/09/21 00:35:33;;;;;;;6.53;3.15;;;18.40;99.90;;;;;;5071795;28;20060;-75
2023/09/21 00:38:01;;;;;;;4.47;2.60;;;18.30;99.90;;;;;;5071201;28;20059;-75
2023/09/21 00:40:26;;;;;;;;;;;18.30;99.90;;;;;;5074737;28;20132;-73
2023/09/21 00:42:52;;;;;;;6.20;3.10;;;18.30;99.90;;;;;;5068280;28;20419;-75
2023/09/21 00:45:21;;;;;;;5.45;2.75;;;18.30;99.90;;;;;;5063806;28;20102;-75
2023/09/21 00:47:50;;;;;;;5.07;3.10;;;18.30;99.90;;;;;;5070778;28;20058;-75
2023/09/21 00:50:21;;;;;;;5.80;2.70;;;18.20;99.90;;;;;;5068178;28;20531;-75
2023/09/21 00:52:52;;;;;;;5.72;2.95;;;18.20;99.90;;;;;;5066267;28;20581;-75
2023/09/21 00:55:29;;;;;;;5.45;3.05;;;18.20;99.90;;;;;;5065064;28;20127;-75
2023/09/21 00:58:02;;;;;;;5.28;2.92;;;18.20;99.90;;;;;;5071337;28;20116;-75
2023/09/21 01:00:31;;;;;;;4.10;2.50;;;18.20;99.90;;;;;;5084954;28;20186;-75
2023/09/21 01:03:07;;;;;;;4.97;2.90;;;18.20;99.90;;;;;;5071977;28;20048;-75
2023/09/21 01:05:39;;;;;;;4.70;2.47;;;18.20;99.90;;;;;;5064341;28;20056;-75
2023/09/21 01:08:11;;;;;;;6.50;3.00;;;18.10;99.90;;;;;;5065531;28;20083;-75
2023/09/21 01:10:41;;;;;;;5.30;2.85;;;18.10;99.90;;;;;;5069198;28;20051;-75
2023/09/21 01:13:08;;;;;;;6.47;2.70;;;18.10;99.90;;;;;;5076575;28;20518;-75
2023/09/21 01:15:34;;;;;;;5.50;3.10;;;18.10;99.90;;;;;;5068086;28;20399;-75
2023/09/21 01:18:02;;;;;;;4.72;3.00;;;18.10;99.90;;;;;;5052599;28;20090;-75
2023/09/21 01:20:30;;;;;;;6.85;2.50;;;18.10;99.90;;;;;;5053314;28;20158;-75
2023/09/21 01:23:12;;;;;;;3.53;2.58;;;18.00;99.90;;;;;;5057697;28;20080;-75
2023/09/21 01:25:40;;;;;;;6.53;3.10;;;18.00;99.90;;;;;;5056328;28;20062;-75
2023/09/21 01:28:09;;;;;;;3.80;2.92;;;18.00;99.90;;;;;;5053265;28;20051;-75
2023/09/21 01:30:41;;;;;;;4.15;2.53;;;18.00;99.90;;;;;;5053397;28;20057;-75
2023/09/21 01:33:08;;;;;;;5.55;2.63;;;18.00;99.90;;;;;;5053335;28;20348;-75
2023/09/21 01:35:36;;;;;;;6.75;2.88;;;17.90;99.90;;;;;;5066003;28;20055;-75
2023/09/21 01:38:03;;;;;;;4.88;2.90;;;18.00;99.90;;;;;;5060839;28;20081;-75
2023/09/21 01:40:29;;;;;;;5.55;2.45;;;18.00;99.90;;;;;;5053816;28;20056;-75
2023/09/21 01:42:55;;;;;;;4.85;2.60;;;17.90;99.90;;;;;;5053366;28;20041;-75
2023/09/21 01:45:21;;;;;;;5.40;2.83;;;17.90;99.90;;;;;;5057155;28;20433;-75
2023/09/21 01:47:46;;;;;;;4.22;2.60;;;17.90;99.90;;;;;;5054637;28;20095;-75
2023/09/21 01:50:15;;;;;;;4.65;2.72;;;17.90;99.90;;;;;;5071677;28;20055;-75
2023/09/21 01:52:41;;;;;;;5.13;2.72;;;17.90;99.90;;;;;;5060734;28;20113;-75
2023/09/21 01:55:10;;;;;;;3.40;2.60;;;17.90;99.90;;;;;;5071909;28;20479;-75
2023/09/21 01:57:40;;;;;;;3.83;2.40;;;17.90;99.90;;;;;;5055895;28;20049;-75
2023/09/21 02:00:25;;;;;;;4.13;2.50;;;17.90;99.90;;;;;;5061978;28;20514;-75
2023/09/21 02:02:51;;;;;;;4.65;2.60;;;17.90;99.90;;;;;;5056174;28;20488;-75
2023/09/21 02:05:17;;;;;;;3.70;2.50;;;17.90;99.90;;;;;;5049381;28;20064;-72
2023/09/21 02:07:43;;;;;;;5.40;2.80;;;17.90;99.90;;;;;;5052677;28;20056;-75
2023/09/21 02:10:10;;;;;;;6.00;2.70;;;17.90;99.90;;;;;;5059734;28;20036;-75
2023/09/21 02:12:39;;;;;;;6.85;2.83;;;17.90;99.90;;;;;;5056893;28;20043;-75
2023/09/21 02:15:12;;;;;;;3.95;2.53;;;17.80;99.90;;;;;;5065778;28;20601;-74
2023/09/21 02:17:41;;;;;;;5.22;2.47;;;17.90;99.90;;;;;;5077610;28;20053;-75
2023/09/21 02:20:16;;;;;;;3.90;2.60;;;17.80;99.90;;;;;;5057928;28;20697;-75
2023/09/21 02:22:47;;;;;;;4.68;2.42;;;17.90;99.90;;;;;;5058179;28;20127;-74
2023/09/21 02:25:14;;;;;;;5.53;2.67;;;17.80;99.90;;;;;;5039979;28;20045;-74
2023/09/21 02:27:41;;;;;;;3.85;2.38;;;17.80;99.90;;;;;;5061045;28;20044;-75
2023/09/21 02:30:16;;;;;;;3.47;2.42;;;17.80;99.90;;;;;;5064029;28;20047;-74
2023/09/21 02:32:49;;;;;;;3.67;2.28;;;17.80;99.90;;;;;;5055510;28;20039;-74
2023/09/21 02:35:16;;;;;;;4.20;2.40;;;17.80;99.90;;;;;;5054258;28;20055;-75
2023/09/21 02:37:46;;;;;;;3.28;2.42;;;17.80;99.90;;;;;;5055267;28;20400;-75
2023/09/21 02:40:17;;;;;;;5.07;2.40;;;17.80;99.90;;;;;;5050193;28;20044;-75
2023/09/21 02:42:51;;;;;;;5.40;2.88;;;17.80;99.90;;;;;;5060297;28;20052;-75
2023/09/21 02:45:18;;;;;;;5.75;2.22;;;17.80;99.90;;;;;;5056258;28;20565;-75
2023/09/21 02:47:45;;;;;;;;;;;17.80;99.90;;;;;;5064851;28;20508;-75
2023/09/21 02:50:14;;;;;;;;;;;17.80;99.90;;;;;;5053548;28;19942;-74
2023/09/21 02:52:56;;;;;;;4.40;2.33;;;17.80;99.90;;;;;;5051845;28;20688;-75
2023/09/21 02:55:26;;;;;;;6.03;2.80;;;17.70;99.90;;;;;;5055728;28;20036;-75
2023/09/21 02:57:55;;;;;;;5.15;2.45;;;17.80;99.90;;;;;;5056371;28;20068;-74
2023/09/21 03:00:43;;;;;;;5.97;2.78;;;17.80;99.90;;;;;;5050605;28;20094;-75
2023/09/21 03:03:22;;;;;;;4.93;2.47;;;17.80;99.90;;;;;;5058336;28;20041;-75
2023/09/21 03:05:49;;;;;;;5.90;2.35;;;17.80;99.90;;;;;;5056428;28;20060;-75
2023/09/21 03:08:18;;;;;;;5.65;2.95;;;17.80;99.90;;;;;;5047371;28;20121;-75
2023/09/21 03:10:54;;;;;;;3.78;2.35;;;17.70;99.90;;;;;;5064705;28;20455;-75
2023/09/21 03:13:21;;;;;;;5.22;2.42;;;17.70;99.90;;;;;;5052685;28;20519;-75
2023/09/21 03:15:58;;;;;;;7.57;2.45;;;17.70;99.90;;;;;;5052554;28;20079;-75
2023/09/21 03:18:25;;;;;;;4.05;2.58;;;17.70;99.90;;;;;;5068543;28;20049;-75
2023/09/21 03:20:54;;;;;;;4.47;2.30;;;17.70;99.90;;;;;;5048201;28;20055;-75
2023/09/21 03:23:21;;;;;;;5.15;2.58;;;17.70;99.90;;;;;;5051136;28;20048;-75
2023/09/21 03:25:49;;;;;;;4.30;2.63;;;17.70;99.90;;;;;;5064537;28;20120;-75
2023/09/21 03:28:17;;;;;;;5.05;2.60;;;17.60;99.90;;;;;;5055610;28;20037;-75
2023/09/21 03:30:44;;;;;;;3.78;2.60;;;17.70;99.90;;;;;;5052877;28;20089;-75
2023/09/21 03:33:10;;;;;;;;;;;17.70;99.90;;;;;;5049548;28;20055;-75
2023/09/21 03:35:39;;;;;;;3.75;2.70;;;17.60;99.90;;;;;;5055760;28;19917;-75
2023/09/21 03:38:10;;;;;;;4.18;2.60;;;17.60;99.90;;;;;;5063545;28;21966;-75
2023/09/21 03:40:36;;;;;;;3.65;2.60;;;17.60;99.90;;;;;;5051437;28;20045;-75
2023/09/21 03:43:02;;;;;;;4.78;2.25;;;17.60;99.90;;;;;;5059119;28;20438;-75
2023/09/21 03:45:28;;;;;;;6.53;2.70;;;17.60;99.90;;;;;;5070861;28;20606;-75
2023/09/21 03:47:54;;;;;;;3.33;2.45;;;17.60;99.90;;;;;;5050942;28;20097;-74
2023/09/21 03:50:21;;;;;;;5.35;2.55;;;17.60;99.90;;;;;;5051362;28;20400;-75
2023/09/21 03:52:52;;;;;;;3.58;2.60;;;17.60;99.90;;;;;;5051764;28;20053;-74
2023/09/21 03:55:18;;;;;;;3.03;2.40;;;17.70;99.90;;;;;;5054984;28;20041;-75
2023/09/21 03:57:47;;;;;;;4.65;2.38;;;17.70;99.90;;;;;;5068618;28;20040;-74
2023/09/21 04:00:36;;;;;;;3.53;2.03;;;17.70;99.90;;;;;;5057446;28;20033;-75
2023/09/21 04:03:10;;;;;;;3.35;2.28;;;17.70;99.90;;;;;;5051871;28;20048;-75
2023/09/21 04:05:37;;;;;;;3.50;2.33;;;17.70;99.90;;;;;;5073139;28;21756;-75
2023/09/21 04:08:04;;;;;;;3.30;2.20;;;17.70;99.90;;;;;;5050903;28;20068;-75
2023/09/21 04:10:30;;;;;;;4.60;2.38;;;17.80;99.90;;;;;;5055033;28;20102;-75
2023/09/21 04:12:57;;;;;;;2.70;2.10;;;17.80;99.90;;;;;;5065888;28;20408;-75
2023/09/21 04:15:27;;;;;;;4.90;2.50;;;17.80;99.90;;;;;;5056133;28;20106;-75
2023/09/21 04:17:54;;;;;;;4.60;2.42;;;17.80;99.90;;;;;;5049654;28;20303;-74
2023/09/21 04:20:21;;;;;;;5.97;2.67;;;17.80;99.90;;;;;;5059130;28;20067;-75
2023/09/21 04:22:49;;;;;;;3.22;2.40;;;17.70;99.90;;;;;;5053284;28;20137;-75
2023/09/21 04:25:16;;;;;;;4.57;2.30;;;17.70;99.90;;;;;;5055571;28;20405;-74
2023/09/21 04:27:44;;;;;;;4.38;2.33;;;17.70;99.90;;;;;;5049545;28;20496;-75
2023/09/21 04:30:14;;;;;;;3.97;2.38;;;17.70;99.90;;;;;;5064393;28;20040;-75
2023/09/21 04:32:46;;;;;;;4.90;2.65;;;17.70;99.90;;;;;;5051461;28;20447;-75
2023/09/21 04:35:18;;;;;;;6.25;2.47;;;17.70;99.90;;;;;;5062845;28;20048;-75
2023/09/21 04:37:44;;;;;;;4.22;2.47;;;17.70;99.90;;;;;;5050276;28;20549;-75
2023/09/21 04:40:12;;;;;;;3.40;2.28;;;17.60;99.90;;;;;;5051940;28;20040;-75
2023/09/21 04:42:39;;;;;;;3.85;2.60;;;17.60;99.90;;;;;;5057586;28;20122;-72
2023/09/21 04:45:09;;;;;;;4.30;2.60;;;17.60;99.90;;;;;;5044261;28;20718;-75
2023/09/21 04:47:49;;;;;;;4.88;3.00;;;17.50;99.90;;;;;;5052857;28;20045;-75
2023/09/21 04:50:16;;;;;;;7.78;2.58;;;17.50;99.90;;;;;;5048427;28;20118;-74
2023/09/21 04:52:43;;;;;;;4.03;2.40;;;17.50;99.90;;;;;;5057020;28;20540;-75
2023/09/21 04:55:09;;;;;;;5.43;2.60;;;17.40;99.90;;;;;;5070159;28;20132;-74
2023/09/21 04:57:38;;;;;;;5.70;2.30;;;17.40;99.90;;;;;;5058335;28;20041;-75
2023/09/21 05:00:12;;;;;;;3.35;2.55;;;17.40;99.90;;;;;;5055320;28;20188;-74
2023/09/21 05:02:37;;;;;;;3.35;2.33;;;17.40;99.90;;;;;;5061979;28;20396;-75
2023/09/21 05:05:03;;;;;;;3.60;2.22;;;17.40;99.90;;;;;;5054806;28;20053;-75
2023/09/21 05:07:29;;;;;;;5.13;2.42;;;17.40;99.90;;;;;;5051343;28;20147;-75
2023/09/21 05:09:55;;;;;;;3.78;2.63;;;17.40;99.90;;;;;;5059130;28;20733;-75
2023/09/21 05:12:21;;;;;;;3.88;2.42;;;17.40;99.90;;;;;;5055980;28;20493;-74
2023/09/21 05:14:48;;;;;;;5.05;2.83;;;17.30;99.90;;;;;;5053991;28;20045;-74
2023/09/21 05:17:21;;;;;;;3.67;2.38;;;17.30;99.90;;;;;;5057208;28;20131;-75
2023/09/21 05:19:46;;;;;;;3.22;2.47;;;17.30;99.90;;;;;;5050596;28;20055;-74
2023/09/21 05:22:12;;;;;;;4.30;2.58;;;17.30;99.90;;;;;;5050033;28;20045;-75
2023/09/21 05:24:39;;;;;;;5.00;2.45;;;17.30;99.90;;;;;;5052819;28;20052;-74
2023/09/21 05:27:06;;;;;;;6.30;2.67;;;17.30;99.90;;;;;;5054273;28;20063;-74
2023/09/21 05:29:32;;;;;;;5.13;2.70;;;17.30;99.90;;;;;;5051079;28;20606;-74
2023/09/21 05:31:58;;;;;;;3.47;2.28;;;17.30;99.90;;;;;;5047048;28;20051;-74
2023/09/21 05:34:26;;;;;;;3.80;2.45;;;17.30;99.90;;;;;;5051953;28;20420;-75
2023/09/21 05:36:53;;;;;;;4.90;2.70;;;17.40;99.90;;;;;;5056042;28;20106;-74
2023/09/21 05:39:19;;;;;;;;;;;17.40;99.90;;;;;;5051633;28;20546;-74
2023/09/21 05:41:48;;;;;;;4.73;2.57;;;17.40;99.90;;;;;;5065862;28;19925;-75
2023/09/21 05:44:14;;;;;;;4.45;2.45;;;17.40;99.90;;;;;;5064287;28;20036;-74
2023/09/21 05:46:41;;;;;;;5.80;3.17;;;17.40;99.90;;;;;;5052200;28;20369;-74
2023/09/21 05:49:07;;;;;;;6.93;3.30;;;17.40;99.90;;;;;;5056401;28;20044;-74
2023/09/21 05:51:36;;;;;;;5.60;3.50;;;17.50;99.90;;;;;;5050907;28;20306;-75
2023/09/21 05:54:03;;;;;;;7.63;3.78;;;17.50;99.90;;;;;;5054541;28;20093;-75
2023/09/21 05:56:30;;;;;;;5.25;3.53;;;17.50;99.90;;;;;;5057196;28;20101;-75
2023/09/21 05:58:56;;;;;;;5.95;3.55;;;17.50;99.90;;;;;;5061327;28;20052;-75
2023/09/21 06:01:22;;;;;;;5.18;2.70;;;17.50;99.90;;;;;;5051547;28;20037;-74
2023/09/21 06:03:48;;;;;;;6.25;3.30;;;17.60;99.90;;;;;;5054317;28;20416;-75
2023/09/21 06:06:14;;;;;;;4.47;2.83;;;17.60;99.90;;;;;;5054281;28;20146;-75
2023/09/21 06:08:40;;;;;;;8.20;3.10;;;17.70;99.90;;;;;;5057532;28;20044;-76
2023/09/21 06:11:06;;;;;;;4.78;2.85;;;17.70;99.90;;;;;;5058800;28;20051;-76
2023/09/21 06:13:32;;;;;;;5.50;2.80;;;17.80;99.90;;;;;;5053510;28;20040;-76
2023/09/21 06:15:59;;;;;;;5.78;2.90;;;17.80;99.90;;;;;;5062351;28;20083;-77
2023/09/21 06:18:25;;;;;;;6.15;2.90;;;17.90;99.90;;;;;;5047469;28;20717;-77
2023/09/21 06:20:53;;;;;;;4.55;2.75;;;17.90;99.90;;;;;;5056628;28;20045;-77
2023/09/21 06:23:18;;;;;;;4.53;2.60;;;18.00;99.90;;;;;;5052223;28;20396;-77
2023/09/21 06:25:46;;;;;;;4.63;2.70;;;18.00;99.90;;;;;;5063156;28;20048;-77
2023/09/21 06:28:11;;;;;;;4.32;2.60;;;18.10;99.90;;;;;;5055856;28;20045;-76
2023/09/21 06:30:37;;;;;;;4.22;2.50;;;18.10;99.90;;;;;;5069530;28;20101;-76
2023/09/21 06:33:04;;;;;;;4.63;2.90;;;18.20;99.90;;;;;;5049624;28;20048;-76
2023/09/21 06:35:30;;;;;;;5.57;2.88;;;18.20;99.90;;;;;;5061239;28;20434;-76
2023/09/21 06:37:55;;;;;;;5.07;2.75;;;18.30;99.90;;;;;;5049944;28;20483;-78
2023/09/21 06:40:22;;;;;;;4.35;2.92;;;18.40;99.90;;;;;;5053268;28;20051;-76
2023/09/21 06:42:48;;;;;;;5.88;2.60;;;18.40;99.90;;;;;;5060386;28;20050;-76
2023/09/21 06:45:14;;;;;;;4.13;2.20;;;18.50;99.90;;;;;;5049277;28;20045;-76
2023/09/21 06:47:39;;;;;;;5.65;2.80;;;18.60;99.90;;;;;;5066746;28;20044;-76
2023/09/21 06:50:11;;;;;;;4.47;2.75;;;18.60;99.90;;;;;;5057467;28;20474;-77
2023/09/21 06:52:38;;;;;;;4.35;2.40;;;18.70;99.90;;;;;;5069846;28;20120;-76
2023/09/21 06:55:07;;;;;;;6.55;2.80;;;18.80;99.90;;;;;;5055909;28;20045;-76
2023/09/21 06:57:34;;;;;;;4.53;2.50;;;18.80;99.90;;;;;;5050221;28;20025;-76
2023/09/21 07:00:01;;;;;;;5.65;2.83;;;18.80;99.90;;;;;;5050622;28;20056;-76
2023/09/21 07:02:27;;;;;;;3.30;2.50;;;18.80;99.90;;;;;;5058004;28;20033;-76
2023/09/21 07:04:53;;;;;;;5.80;2.60;;;18.80;99.90;;;;;;5046690;28;20523;-76
2023/09/21 07:07:20;;;;;;;4.95;2.65;;;18.90;99.90;;;;;;5070942;28;20072;-76
2023/09/21 07:09:47;;;;;;;5.15;3.05;;;18.90;99.90;;;;;;5062654;28;20083;-76
2023/09/21 07:12:12;;;;;;;5.13;2.22;;;18.90;99.90;;;;;;5054495;28;20033;-76
2023/09/21 07:14:39;;;;;;;5.78;2.40;;;18.90;99.90;;;;;;5054107;28;20530;-76
2023/09/21 07:17:05;;;;;;;3.23;2.30;;;18.90;99.90;;;;;;5057602;28;20049;-75
2023/09/21 07:19:31;;;;;;;4.77;2.77;;;18.90;99.90;;;;;;5046072;28;20079;-78
2023/09/21 07:21:58;;;;;;;5.10;2.50;;;18.90;99.90;;;;;;5048070;28;20084;-78
2023/09/21 07:24:24;;;;;;;4.85;2.40;;;19.00;99.90;;;;;;5057238;28;20479;-74
2023/09/21 07:26:52;;;;;;;4.13;2.53;;;19.00;99.90;;;;;;5054403;28;20052;-73
2023/09/21 07:29:18;;;;;;;4.70;2.47;;;19.10;99.90;;;;;;5058809;28;20036;-74
2023/09/21 07:31:44;;;;;;;5.88;2.63;;;19.10;99.90;;;;;;5059889;28;20051;-73
2023/09/21 07:34:09;;;;;;;4.28;2.60;;;19.20;99.90;;;;;;5050428;28;20127;-73
2023/09/21 07:36:38;;;;;;;5.50;2.70;;;19.20;99.90;;;;;;5049169;28;20139;-73
2023/09/21 07:39:08;;;;;;;4.35;2.40;;;19.20;99.90;;;;;;5065507;28;20087;-73
2023/09/21 07:41:34;;;;;;;4.53;2.40;;;19.30;99.90;;;;;;5053735;28;20068;-72
2023/09/21 07:44:00;;;;;;;5.22;2.80;;;19.30;99.90;;;;;;5073695;28;20037;-73
2023/09/21 07:46:28;;;;;;;4.38;2.70;;;19.30;99.90;;;;;;5057563;28;20051;-73
2023/09/21 07:48:53;;;;;;;6.15;2.83;;;19.40;99.90;;;;;;5049656;28;20051;-72
2023/09/21 07:51:21;;;;;;;5.57;2.55;;;19.40;99.90;;;;;;5062521;28;20040;-73
2023/09/21 07:53:47;;;;;;;4.13;2.90;;;19.40;99.90;;;;;;5068765;28;20041;-76
2023/09/21 07:56:13;;;;;;;4.75;2.40;;;19.50;99.90;;;;;;5049814;28;20439;-73
2023/09/21 07:58:39;;;;;;;4.40;2.55;;;19.50;99.90;;;;;;5058351;28;20036;-74
2023/09/21 08:01:05;;;;;;;5.95;3.08;;;19.50;99.90;;;;;;5059558;28;20109;-74
2023/09/21 08:03:31;;;;;;;4.63;2.90;;;19.60;99.90;;;;;;5057533;28;20033;-74
2023/09/21 08:05:57;;;;;;;6.83;2.67;;;19.70;99.90;;;;;;5050993;28;20055;-79
2023/09/21 08:08:26;;;;;;;6.47;2.67;;;19.70;99.90;;;;;;5050129;28;20094;-74
2023/09/21 08:10:53;;;;;;;6.40;2.90;;;19.80;99.90;;;;;;5066182;28;20407;-72
2023/09/21 08:13:25;;;;;;;7.82;2.80;;;19.80;99.90;;;;;;5062374;28;20040;-73
2023/09/21 08:15:52;;;;;;;5.55;2.72;;;19.90;99.90;;;;;;5052796;28;20052;-73
2023/09/21 08:18:18;;;;;;;4.38;2.47;;;19.90;99.90;;;;;;5054202;28;20515;-74
2023/09/21 08:20:44;;;;;;;4.65;2.70;;;20.00;99.90;;;;;;5055232;28;20121;-74
2023/09/21 08:23:10;;;;;;;5.90;2.80;;;20.00;99.90;;;;;;5063043;28;20550;-75
2023/09/21 08:25:37;;;;;;;5.47;2.73;;;20.00;99.90;;;;;;5058196;28;20049;-76
2023/09/21 08:28:03;;;;;;;;;;;20.00;99.90;;;;;;5068373;28;20056;-76
2023/09/21 08:30:30;;;;;;;4.32;2.30;;;20.00;99.90;;;;;;5058116;28;20193;-75
2023/09/21 08:32:57;;;;;;;5.80;2.80;;;19.90;99.90;;;;;;5059861;28;20072;-75
2023/09/21 08:35:22;;;;;;;4.43;2.50;;;20.00;99.90;;;;;;5052648;28;20049;-74
2023/09/21 08:37:50;;;;;;;5.78;3.03;;;20.00;99.90;;;;;;5054707;28;20388;-73
2023/09/21 08:40:16;;;;;;;3.75;2.55;;;20.00;99.90;;;;;;5060368;28;20491;-74
2023/09/21 08:42:44;;;;;;;6.80;2.78;;;20.00;99.90;;;;;;5057174;28;20084;-74
2023/09/21 08:45:11;;;;;;;4.43;2.70;;;19.90;99.90;;;;;;5064881;28;20052;-74
2023/09/21 08:47:40;;;;;;;7.38;3.20;;;20.00;99.90;;;;;;5061076;28;20744;-73
2023/09/21 08:50:10;;;;;;;5.57;2.72;;;19.90;99.90;;;;;;5076551;28;20045;-73
2023/09/21 08:52:37;;;;;;;5.90;2.50;;;19.90;99.90;;;;;;5065761;28;20438;-73
2023/09/21 08:55:03;;;;;;;6.72;2.70;;;19.90;99.90;;;;;;5054149;28;20400;-74
2023/09/21 08:57:31;;;;;;;6.90;3.10;;;19.90;99.90;;;;;;5056270;28;20337;-74
2023/09/21 09:00:00;;;;;;;5.05;2.80;;;19.80;99.90;;;;;;5052340;28;20553;-74
2023/09/21 09:02:27;;;;;;;4.55;2.88;;;19.80;99.90;;;;;;5055211;28;20563;-74
2023/09/21 09:04:53;;;;;;;;;;;19.70;99.90;;;;;;5055529;28;20091;-75
2023/09/21 09:07:19;;;;;;;3.73;2.47;;;19.70;99.90;;;;;;5056438;28;19921;-74
2023/09/21 09:09:46;;;;;;;4.75;2.80;;;19.60;99.90;;;;;;5055849;28;20055;-72
2023/09/21 09:12:24;;;;;;;5.03;2.58;;;19.60;99.90;;;;;;5048465;28;20045;-73
2023/09/21 09:14:51;;;;;;;4.68;2.40;;;19.50;99.90;;;;;;5056179;28;20112;-73
2023/09/21 09:17:17;;;;;;;7.13;2.95;;;19.50;99.90;;;;;;5060006;28;20070;-72
2023/09/21 09:19:45;;;;;;;6.38;3.20;;;19.40;99.90;;;;;;5058227;28;20048;-73
2023/09/21 09:22:11;;;;;;;7.95;3.10;;;19.40;99.90;;;;;;5062217;28;20487;-74
2023/09/21 09:24:37;;;;;;;6.82;3.13;;;19.40;99.90;;;;;;5069707;28;20055;-74
2023/09/21 09:27:03;;;;;;;4.50;3.03;;;19.40;99.90;;;;;;5070826;28;20128;-74
2023/09/21 09:29:29;;;;;;;5.53;2.90;;;19.40;99.90;;;;;;5069351;28;20052;-76
2023/09/21 09:31:55;;;;;;;5.40;2.95;;;19.40;99.90;;;;;;5055348;28;20037;-74
2023/09/21 09:34:22;;;;;;;4.20;2.80;;;19.40;99.90;;;;;;5065159;28;20037;-74
2023/09/21 09:36:52;;;;;;;3.92;3.00;;;19.40;99.90;;;;;;5034174;28;20061;-74
2023/09/21 09:39:23;;;;;;;4.68;3.03;;;19.40;99.90;;;;;;5051463;28;20047;-75
2023/09/21 09:41:51;;;;;;;4.80;3.20;;;19.40;99.90;;;;;;5059144;28;20049;-73
2023/09/21 09:44:22;;;;;;;5.38;3.30;;;19.40;99.90;;;;;;5048976;28;20140;-74
2023/09/21 09:46:51;;;;;;;6.68;3.50;;;19.40;99.90;;;;;;5058771;28;20061;-74
2023/09/21 09:49:21;;;;;;;5.72;3.38;;;19.40;99.90;;;;;;5072831;28;20041;-75
2023/09/21 09:51:51;;;;;;;4.78;3.15;;;19.40;99.90;;;;;;5054345;28;20044;-75
2023/09/21 09:54:18;;;;;;;5.47;3.30;;;19.30;99.90;;;;;;5056068;28;20032;-74
2023/09/21 09:56:44;;;;;;;7.57;3.20;;;19.40;99.90;;;;;;5062127;28;20037;-74
2023/09/21 09:59:14;;;;;;;9.13;3.08;;;19.40;99.90;;;;;;5058333;28;20135;-71
2023/09/21 10:01:44;;;;;;;5.18;3.08;;;19.40;99.90;;;;;;5056147;28;20044;-72
2023/09/21 10:04:10;;;;;;;5.22;2.97;;;19.40;99.90;;;;;;5059646;28;20507;-70
2023/09/21 10:06:36;;;;;;;4.75;3.17;;;19.40;99.90;;;;;;5075756;28;20051;-73
2023/09/21 10:09:11;;;;;;;5.93;3.33;;;19.40;99.90;;;;;;5052740;28;20579;-73
2023/09/21 10:11:46;;;;;;;4.57;3.03;;;19.40;99.90;;;;;;5056357;28;20570;-73
2023/09/21 10:14:17;;;;;;;5.20;3.40;;;19.40;99.90;;;;;;5061160;28;20239;-76
2023/09/21 10:16:53;;;;;;;3.83;3.10;;;19.40;99.90;;;;;;5058849;28;20138;-76
2023/09/21 10:19:29;;;;;;;5.27;3.43;;;19.40;99.90;;;;;;5063442;28;20045;-73
2023/09/21 10:22:03;;;;;;;6.80;3.60;;;19.30;99.90;;;;;;5052946;28;20110;-73
2023/09/21 10:24:30;;;;;;;6.68;3.60;;;19.30;99.90;;;;;;5053498;28;20052;-73
2023/09/21 10:27:03;;;;;;;4.95;3.08;;;19.30;99.90;;;;;;5061234;28;20079;-74
2023/09/21 10:29:33;;;;;;;4.97;3.45;;;19.30;99.90;;;;;;5074050;28;20471;-74
2023/09/21 10:32:06;;;;;;;5.72;3.33;;;19.30;99.90;;;;;;5061445;28;20499;-75
2023/09/21 10:34:32;;;;;;;5.82;3.47;;;19.30;99.90;;;;;;5064082;28;20048;-75
2023/09/21 10:37:05;;;;;;;6.63;3.53;;;19.30;99.90;;;;;;5051784;28;20044;-74
2023/09/21 10:39:31;;;;;;;7.78;4.25;;;19.30;99.90;;;;;;5048519;28;20352;-75
2023/09/21 10:42:03;;;;;;;5.65;3.65;;;19.30;99.90;;;;;;5056873;28;20044;-75
2023/09/21 10:45:04;;;;;;;6.97;4.03;;;19.30;99.90;;;;;;5051731;28;20488;-77
2023/09/21 10:47:35;;;;;;;5.60;4.13;;;19.30;99.90;;;;;;5051859;28;20089;-77
2023/09/21 10:50:13;;;;;;;6.53;3.67;;;19.20;99.90;;;;;;5058904;28;20040;-75
2023/09/21 10:52:47;;;;;;;5.95;4.18;;;19.20;99.90;;;;;;5050002;28;20499;-76
2023/09/21 10:55:16;;;;;;;6.78;4.32;;;19.20;99.90;;;;;;5058503;28;20078;-77
2023/09/21 10:57:42;;;;;;;7.28;4.60;;;19.20;99.90;;;;;;5057579;28;20071;-77
2023/09/21 11:00:20;;;;;;;7.27;4.50;;;19.30;99.90;;;;;;5061955;28;20048;-77
2023/09/21 11:02:47;;;;;;;7.03;4.32;;;19.40;99.90;;;;;;5060019;28;20086;-77
2023/09/21 11:05:18;;;;;;;5.30;4.18;;;19.50;99.90;;;;;;5048298;28;20139;-77
2023/09/21 11:07:47;;;;;;;5.47;4.05;;;19.50;99.90;;;;;;5057364;28;20128;-77
2023/09/21 11:10:14;;;;;;;6.05;3.65;;;19.60;99.90;;;;;;5052537;28;20502;-76
2023/09/21 11:12:41;;;;;;;5.70;4.05;;;19.70;99.90;;;;;;5061319;28;20487;-76
2023/09/21 11:15:16;;;;;;;5.18;3.50;;;19.80;99.90;;;;;;5054071;28;20068;-77
2023/09/21 11:17:43;;;;;;;6.65;4.00;;;19.80;99.90;;;;;;5056129;28;20049;-77
2023/09/21 11:20:15;;;;;;;5.97;3.67;;;19.90;99.90;;;;;;5057657;28;20063;-76
2023/09/21 11:22:45;;;;;;;6.50;3.53;;;19.90;99.90;;;;;;5054926;28;20135;-76
2023/09/21 11:25:12;;;;;;;5.15;3.45;;;19.90;99.90;;;;;;5058160;28;20373;-76
2023/09/21 11:27:40;;;;;;;5.25;3.65;;;19.90;99.90;;;;;;5052327;28;20061;-77
2023/09/21 11:30:10;;;;;;;4.65;3.75;;;20.00;99.90;;;;;;5065775;28;20048;-74
2023/09/21 11:32:45;;;;;;;5.72;3.95;;;20.00;99.90;;;;;;5052217;28;20049;-75
2023/09/21 11:35:11;;;;;;;8.63;4.20;;;20.10;99.90;;;;;;5059275;28;20047;-74
2023/09/21 11:37:37;;;;;;;5.93;3.65;;;20.10;99.90;;;;;;5053370;28;20041;-74
2023/09/21 11:40:10;;;;;;;6.97;4.05;;;20.20;99.90;;;;;;5050904;28;20696;-75
2023/09/21 11:42:40;;;;;;;6.05;3.50;;;20.20;99.90;;;;;;5057025;28;20110;-76
2023/09/21 11:45:06;;;;;;;6.72;3.67;;;20.20;99.90;;;;;;5064417;28;20093;-70
2023/09/21 11:47:32;;;;;;;5.78;3.67;;;20.20;99.90;;;;;;5061481;28;20033;-70
2023/09/21 11:50:02;;;;;;;6.18;3.63;;;20.20;99.90;;;;;;5064209;28;20071;-76
2023/09/21 11:52:28;;;;;;;6.22;3.70;;;20.10;99.90;;;;;;5069052;28;20045;-75
2023/09/21 11:54:54;;;;;;;6.88;3.40;;;20.10;99.90;;;;;;5055138;28;20086;-81
2023/09/21 11:57:20;;;;;;;6.15;3.60;;;20.00;99.90;;;;;;5054672;28;20455;-78
2023/09/21 11:59:46;;;;;;;6.70;4.43;;;19.90;99.90;;;;;;5064683;28;20045;-77
2023/09/21 12:02:18;;;;;;;6.38;4.03;;;19.80;99.90;;;;;;5060718;28;20040;-78
2023/09/21 12:04:44;;;;;;;7.82;4.57;;;19.70;99.90;;;;;;5047819;28;20079;-78
2023/09/21 12:07:10;;;;;;;7.97;4.50;;;19.70;99.90;;;;;;5047791;28;20048;-78
2023/09/21 12:09:37;;;;;;;8.52;4.75;;;19.70;99.90;;;;;;5056466;28;20113;-77
2023/09/21 12:12:07;;;;;;;8.40;5.27;;;19.70;99.90;;;;;;5055408;28;20109;-77
2023/09/21 12:14:34;;;;;;;7.63;5.47;;;19.70;99.90;;;;;;5051576;28;20056;-77
2023/09/21 12:17:09;;;;;;;6.60;5.28;;;19.70;99.90;;;;;;5048548;28;20530;-77
2023/09/21 12:19:36;;;;;;;7.18;5.07;;;19.70;99.90;;;;;;5055907;28;20128;-77
2023/09/21 12:22:04;;;;;;;5.97;4.72;;;19.70;99.90;;;;;;5055916;28;20056;-77
2023/09/21 12:24:30;;;;;;;7.13;4.88;;;19.70;99.90;;;;;;5047518;28;20044;-77
2023/09/21 12:26:56;;;;;;;7.97;4.78;;;19.70;99.90;;;;;;5065199;28;20049;-78
2023/09/21 12:29:24;;;;;;;6.00;4.72;;;19.60;99.90;;;;;;5052669;28;20663;-77
2023/09/21 12:31:50;;;;;;;8.32;4.90;;;19.60;99.90;;;;;;5050068;28;20057;-75
2023/09/21 12:34:16;;;;;;;5.88;4.90;;;19.60;99.90;;;;;;5049400;28;20041;-75
2023/09/21 12:36:42;;;;;;;7.00;4.55;;;19.60;99.90;;;;;;5051655;28;20041;-75
2023/09/21 12:39:09;;;;;;;9.98;4.95;;;19.70;99.90;;;;;;5049691;28;20074;-77
2023/09/21 12:41:38;;;;;;;6.20;5.10;;;19.90;99.90;;;;;;5068250;28;20080;-77
2023/09/21 12:44:06;;;;;;;5.32;4.65;;;19.90;99.90;;;;;;5055122;28;20120;-77
2023/09/21 12:46:32;;;;;;;5.38;4.40;;;20.00;99.90;;;;;;5047694;28;20095;-77
2023/09/21 12:48:58;;;;;;;8.13;4.70;;;19.90;99.90;;;;;;5048955;28;20044;-77
2023/09/21 12:51:24;;;;;;;5.55;4.75;;;19.90;99.90;;;;;;5046823;28;20045;-78
2023/09/21 12:53:50;;;;;;;7.00;4.50;;;19.90;99.90;;;;;;5048421;28;20048;-78